sensor_id;sensor_type;location;lat;lon;timestamp;P1;durP1;ratioP1;P2;durP2;ratioP2
22673;SDS011;11504;43.334;21.918;2023-02-18T00:04:31;134.0;;;116.0;;
22673;SDS011;11504;43.334;21.918;2023-02-18T00:09:09;143.0;;;121.0;;
22673;SDS011;11504;43.334;21.918;2023-02-18T00:13:50;143.0;;;121.0;;
22673;SDS011;11504;43.334;21.918;2023-02-18T00:18:37;147.0;;;126.0;;
22673;SDS011;11504;43.334;21.918;2023-02-18T00:23:15;147.0;;;126.0;;
22673;SDS011;11504;43.334;21.918;2023-02-18T00:27:51;151.0;;;131.0;;
22673;SDS011;11504;43.334;21.918;2023-02-18T00:32:27;151.0;;;131.0;;
22673;SDS011;11504;43.334;21.918;2023-02-18T00:37:04;151.0;;;131.0;;
22673;SDS011;11504;43.334;21.918;2023-02-18T00:41:41;157.0;;;138.0;;
22673;SDS011;11504;43.334;21.918;2023-02-18T00:46:19;157.0;;;138.0;;
22673;SDS011;11504;43.334;21.918;2023-02-18T00:50:57;163.0;;;144.0;;
22673;SDS011;11504;43.334;21.918;2023-02-18T00:55:38;163.0;;;144.0;;
22673;SDS011;11504;43.334;21.918;2023-02-18T01:00:18;140.0;;;123.0;;
22673;SDS011;11504;43.334;21.918;2023-02-18T01:04:55;140.0;;;123.0;;
22673;SDS011;11504;43.334;21.918;2023-02-18T01:09:32;117.0;;;102.0;;
22673;SDS011;11504;43.334;21.918;2023-02-18T01:14:09;117.0;;;102.0;;
22673;SDS011;11504;43.334;21.918;2023-02-18T01:18:45;127.0;;;106.0;;
22673;SDS011;11504;43.334;21.918;2023-02-18T01:23:23;127.0;;;106.0;;
22673;SDS011;11504;43.334;21.918;2023-02-18T01:28:03;137.0;;;109.0;;
22673;SDS011;11504;43.334;21.918;2023-02-18T01:32:49;137.0;;;109.0;;
22673;SDS011;11504;43.334;21.918;2023-02-18T01:37:28;140.0;;;113.0;;
22673;SDS011;11504;43.334;21.918;2023-02-18T01:42:05;140.0;;;113.0;;
22673;SDS011;11504;43.334;21.918;2023-02-18T01:47:02;140.0;;;113.0;;
22673;SDS011;11504;43.334;21.918;2023-02-18T01:51:45;142.0;;;117.0;;
22673;SDS011;11504;43.334;21.918;2023-02-18T01:56:43;142.0;;;117.0;;
22673;SDS011;11504;43.334;21.918;2023-02-18T02:01:34;136.0;;;116.0;;
22673;SDS011;11504;43.334;21.918;2023-02-18T02:06:21;136.0;;;116.0;;
22673;SDS011;11504;43.334;21.918;2023-02-18T02:11:13;131.0;;;115.0;;
22673;SDS011;11504;43.334;21.918;2023-02-18T02:16:43;131.0;;;115.0;;
22673;SDS011;11504;43.334;21.918;2023-02-18T02:22:27;94.0;;;85.0;;
22673;SDS011;11504;43.334;21.918;2023-02-18T02:30:41;58.0;;;55.0;;
22673;SDS011;11504;43.334;21.918;2023-02-18T02:36:35;58.0;;;55.0;;
22673;SDS011;11504;43.334;21.918;2023-02-18T02:41:47;50.0;;;47.0;;
22673;SDS011;11504;43.334;21.918;2023-02-18T02:47:06;50.0;;;47.0;;
22673;SDS011;11504;43.334;21.918;2023-02-18T02:52:15;41.0;;;39.0;;
22673;SDS011;11504;43.334;21.918;2023-02-18T02:57:44;52.0;;;48.0;;
22673;SDS011;11504;43.334;21.918;2023-02-18T03:02:45;52.0;;;48.0;;
22673;SDS011;11504;43.334;21.918;2023-02-18T03:08:25;64.0;;;56.0;;
22673;SDS011;11504;43.334;21.918;2023-02-18T03:13:52;64.0;;;56.0;;
22673;SDS011;11504;43.334;21.918;2023-02-18T03:18:57;58.0;;;52.0;;
22673;SDS011;11504;43.334;21.918;2023-02-18T03:23:57;58.0;;;52.0;;
22673;SDS011;11504;43.334;21.918;2023-02-18T03:28:50;51.0;;;48.0;;
22673;SDS011;11504;43.334;21.918;2023-02-18T03:33:43;51.0;;;48.0;;
22673;SDS011;11504;43.334;21.918;2023-02-18T03:38:49;48.0;;;44.0;;
22673;SDS011;11504;43.334;21.918;2023-02-18T03:43:50;48.0;;;44.0;;
22673;SDS011;11504;43.334;21.918;2023-02-18T03:48:39;44.0;;;41.0;;
22673;SDS011;11504;43.334;21.918;2023-02-18T03:53:18;44.0;;;41.0;;
22673;SDS011;11504;43.334;21.918;2023-02-18T03:57:55;39.0;;;36.0;;
22673;SDS011;11504;43.334;21.918;2023-02-18T04:02:33;39.0;;;36.0;;
22673;SDS011;11504;43.334;21.918;2023-02-18T04:07:10;39.0;;;36.0;;
22673;SDS011;11504;43.334;21.918;2023-02-18T04:11:47;34.0;;;32.0;;
22673;SDS011;11504;43.334;21.918;2023-02-18T04:16:24;34.0;;;32.0;;
22673;SDS011;11504;43.334;21.918;2023-02-18T04:21:01;49.0;;;44.0;;
22673;SDS011;11504;43.334;21.918;2023-02-18T04:25:41;49.0;;;44.0;;
22673;SDS011;11504;43.334;21.918;2023-02-18T04:30:18;64.0;;;55.0;;
22673;SDS011;11504;43.334;21.918;2023-02-18T04:34:55;64.0;;;55.0;;
22673;SDS011;11504;43.334;21.918;2023-02-18T04:39:32;60.0;;;54.0;;
22673;SDS011;11504;43.334;21.918;2023-02-18T04:44:09;60.0;;;54.0;;
22673;SDS011;11504;43.334;21.918;2023-02-18T04:48:45;57.0;;;52.0;;
22673;SDS011;11504;43.334;21.918;2023-02-18T04:53:22;57.0;;;52.0;;
22673;SDS011;11504;43.334;21.918;2023-02-18T04:57:58;52.0;;;48.0;;
22673;SDS011;11504;43.334;21.918;2023-02-18T05:02:35;52.0;;;48.0;;
22673;SDS011;11504;43.334;21.918;2023-02-18T05:07:11;52.0;;;48.0;;
22673;SDS011;11504;43.334;21.918;2023-02-18T05:11:49;48.0;;;43.0;;
22673;SDS011;11504;43.334;21.918;2023-02-18T05:16:26;48.0;;;43.0;;
22673;SDS011;11504;43.334;21.918;2023-02-18T05:21:03;40.0;;;37.0;;
22673;SDS011;11504;43.334;21.918;2023-02-18T05:25:41;40.0;;;37.0;;
22673;SDS011;11504;43.334;21.918;2023-02-18T05:30:18;33.0;;;31.0;;
22673;SDS011;11504;43.334;21.918;2023-02-18T05:34:55;33.0;;;31.0;;
22673;SDS011;11504;43.334;21.918;2023-02-18T05:39:32;36.0;;;32.0;;
22673;SDS011;11504;43.334;21.918;2023-02-18T05:44:08;36.0;;;32.0;;
22673;SDS011;11504;43.334;21.918;2023-02-18T05:48:44;38.0;;;34.0;;
22673;SDS011;11504;43.334;21.918;2023-02-18T05:53:21;38.0;;;34.0;;
22673;SDS011;11504;43.334;21.918;2023-02-18T05:57:57;38.0;;;36.0;;
22673;SDS011;11504;43.334;21.918;2023-02-18T06:02:33;38.0;;;36.0;;
22673;SDS011;11504;43.334;21.918;2023-02-18T06:07:10;38.0;;;36.0;;
22673;SDS011;11504;43.334;21.918;2023-02-18T06:11:46;39.0;;;37.0;;
22673;SDS011;11504;43.334;21.918;2023-02-18T06:16:24;39.0;;;37.0;;
22673;SDS011;11504;43.334;21.918;2023-02-18T06:21:04;44.0;;;42.0;;
22673;SDS011;11504;43.334;21.918;2023-02-18T06:25:42;44.0;;;42.0;;
22673;SDS011;11504;43.334;21.918;2023-02-18T06:30:19;48.0;;;46.0;;
22673;SDS011;11504;43.334;21.918;2023-02-18T06:34:57;48.0;;;46.0;;
22673;SDS011;11504;43.334;21.918;2023-02-18T06:39:33;62.0;;;59.0;;
22673;SDS011;11504;43.334;21.918;2023-02-18T06:44:10;62.0;;;59.0;;
22673;SDS011;11504;43.334;21.918;2023-02-18T06:48:47;77.0;;;72.0;;
22673;SDS011;11504;43.334;21.918;2023-02-18T06:53:24;77.0;;;72.0;;
22673;SDS011;11504;43.334;21.918;2023-02-18T06:58:02;77.0;;;72.0;;
22673;SDS011;11504;43.334;21.918;2023-02-18T07:02:40;77.0;;;72.0;;
22673;SDS011;11504;43.334;21.918;2023-02-18T07:07:18;77.0;;;72.0;;
22673;SDS011;11504;43.334;21.918;2023-02-18T07:11:54;77.0;;;73.0;;
22673;SDS011;11504;43.334;21.918;2023-02-18T07:16:31;77.0;;;73.0;;
22673;SDS011;11504;43.334;21.918;2023-02-18T07:21:08;64.0;;;60.0;;
22673;SDS011;11504;43.334;21.918;2023-02-18T07:25:44;64.0;;;60.0;;
22673;SDS011;11504;43.334;21.918;2023-02-18T07:30:21;50.0;;;48.0;;
22673;SDS011;11504;43.334;21.918;2023-02-18T07:34:57;50.0;;;48.0;;
22673;SDS011;11504;43.334;21.918;2023-02-18T07:39:34;76.0;;;72.0;;
22673;SDS011;11504;43.334;21.918;2023-02-18T07:44:17;76.0;;;72.0;;
22673;SDS011;11504;43.334;21.918;2023-02-18T07:48:55;102.0;;;95.0;;
22673;SDS011;11504;43.334;21.918;2023-02-18T07:53:33;102.0;;;95.0;;
22673;SDS011;11504;43.334;21.918;2023-02-18T07:58:14;94.0;;;87.0;;
22673;SDS011;11504;43.334;21.918;2023-02-18T08:02:51;94.0;;;87.0;;
22673;SDS011;11504;43.334;21.918;2023-02-18T08:07:28;94.0;;;87.0;;
22673;SDS011;11504;43.334;21.918;2023-02-18T08:12:05;86.0;;;79.0;;
22673;SDS011;11504;43.334;21.918;2023-02-18T08:16:44;86.0;;;79.0;;
22673;SDS011;11504;43.334;21.918;2023-02-18T08:21:23;94.0;;;86.0;;
22673;SDS011;11504;43.334;21.918;2023-02-18T08:26:01;94.0;;;86.0;;
22673;SDS011;11504;43.334;21.918;2023-02-18T08:30:38;101.0;;;94.0;;
22673;SDS011;11504;43.334;21.918;2023-02-18T08:35:20;101.0;;;94.0;;
22673;SDS011;11504;43.334;21.918;2023-02-18T08:39:57;102.0;;;94.0;;
22673;SDS011;11504;43.334;21.918;2023-02-18T08:44:33;102.0;;;94.0;;
22673;SDS011;11504;43.334;21.918;2023-02-18T08:49:09;102.0;;;93.0;;
22673;SDS011;11504;43.334;21.918;2023-02-18T08:53:46;102.0;;;93.0;;
22673;SDS011;11504;43.334;21.918;2023-02-18T08:58:24;87.0;;;80.0;;
22673;SDS011;11504;43.334;21.918;2023-02-18T09:03:01;87.0;;;80.0;;
22673;SDS011;11504;43.334;21.918;2023-02-18T09:07:40;87.0;;;80.0;;
22673;SDS011;11504;43.334;21.918;2023-02-18T09:12:17;72.0;;;67.0;;
22673;SDS011;11504;43.334;21.918;2023-02-18T09:16:56;72.0;;;67.0;;
22673;SDS011;11504;43.334;21.918;2023-02-18T09:21:34;58.0;;;54.0;;
22673;SDS011;11504;43.334;21.918;2023-02-18T09:26:15;58.0;;;54.0;;
22673;SDS011;11504;43.334;21.918;2023-02-18T09:31:04;44.0;;;42.0;;
22673;SDS011;11504;43.334;21.918;2023-02-18T09:35:52;44.0;;;42.0;;
22673;SDS011;11504;43.334;21.918;2023-02-18T09:40:34;44.0;;;42.0;;
22673;SDS011;11504;43.334;21.918;2023-02-18T09:45:29;44.0;;;42.0;;
22673;SDS011;11504;43.334;21.918;2023-02-18T09:50:18;45.0;;;42.0;;
22673;SDS011;11504;43.334;21.918;2023-02-18T09:55:19;45.0;;;42.0;;
22673;SDS011;11504;43.334;21.918;2023-02-18T10:00:15;40.0;;;38.0;;
22673;SDS011;11504;43.334;21.918;2023-02-18T10:05:14;40.0;;;38.0;;
22673;SDS011;11504;43.334;21.918;2023-02-18T10:09:54;35.0;;;33.0;;
22673;SDS011;11504;43.334;21.918;2023-02-18T10:15:00;35.0;;;33.0;;
22673;SDS011;11504;43.334;21.918;2023-02-18T10:19:39;36.0;;;34.0;;
22673;SDS011;11504;43.334;21.918;2023-02-18T10:24:29;36.0;;;34.0;;
22673;SDS011;11504;43.334;21.918;2023-02-18T10:29:19;37.0;;;35.0;;
22673;SDS011;11504;43.334;21.918;2023-02-18T10:34:10;37.0;;;35.0;;
22673;SDS011;11504;43.334;21.918;2023-02-18T10:39:33;36.0;;;34.0;;
22673;SDS011;11504;43.334;21.918;2023-02-18T10:44:59;36.0;;;34.0;;
22673;SDS011;11504;43.334;21.918;2023-02-18T10:50:27;34.0;;;33.0;;
22673;SDS011;11504;43.334;21.918;2023-02-18T10:55:33;34.0;;;33.0;;
22673;SDS011;11504;43.334;21.918;2023-02-18T11:00:23;35.0;;;34.0;;
22673;SDS011;11504;43.334;21.918;2023-02-18T11:05:22;35.0;;;34.0;;
22673;SDS011;11504;43.334;21.918;2023-02-18T11:10:15;36.0;;;34.0;;
22673;SDS011;11504;43.334;21.918;2023-02-18T11:15:15;36.0;;;34.0;;
22673;SDS011;11504;43.334;21.918;2023-02-18T11:20:04;34.0;;;32.0;;
22673;SDS011;11504;43.334;21.918;2023-02-18T11:25:21;34.0;;;32.0;;
22673;SDS011;11504;43.334;21.918;2023-02-18T11:30:18;32.0;;;30.0;;
22673;SDS011;11504;43.334;21.918;2023-02-18T11:35:06;32.0;;;30.0;;
22673;SDS011;11504;43.334;21.918;2023-02-18T11:40:06;28.0;;;26.0;;
22673;SDS011;11504;43.334;21.918;2023-02-18T11:45:26;28.0;;;26.0;;
22673;SDS011;11504;43.334;21.918;2023-02-18T11:50:20;23.0;;;22.0;;
22673;SDS011;11504;43.334;21.918;2023-02-18T11:55:01;23.0;;;22.0;;
22673;SDS011;11504;43.334;21.918;2023-02-18T11:59:58;24.0;;;24.0;;
22673;SDS011;11504;43.334;21.918;2023-02-18T12:05:03;24.0;;;24.0;;
22673;SDS011;11504;43.334;21.918;2023-02-18T12:10:10;26.0;;;25.0;;
22673;SDS011;11504;43.334;21.918;2023-02-18T12:15:15;26.0;;;25.0;;
22673;SDS011;11504;43.334;21.918;2023-02-18T12:21:01;22.0;;;22.0;;
22673;SDS011;11504;43.334;21.918;2023-02-18T12:26:44;22.0;;;22.0;;
22673;SDS011;11504;43.334;21.918;2023-02-18T12:32:11;19.0;;;18.0;;
22673;SDS011;11504;43.334;21.918;2023-02-18T12:37:47;19.0;;;18.0;;
22673;SDS011;11504;43.334;21.918;2023-02-18T12:43:49;18.0;;;18.0;;
22673;SDS011;11504;43.334;21.918;2023-02-18T12:49:29;18.0;;;17.0;;
22673;SDS011;11504;43.334;21.918;2023-02-18T12:55:27;18.0;;;17.0;;
22673;SDS011;11504;43.334;21.918;2023-02-18T13:00:59;30.0;;;24.0;;
22673;SDS011;11504;43.334;21.918;2023-02-18T13:06:43;30.0;;;24.0;;
22673;SDS011;11504;43.334;21.918;2023-02-18T13:12:42;41.0;;;32.0;;
22673;SDS011;11504;43.334;21.918;2023-02-18T13:17:44;41.0;;;32.0;;
22673;SDS011;11504;43.334;21.918;2023-02-18T13:22:35;34.0;;;28.0;;
22673;SDS011;11504;43.334;21.918;2023-02-18T13:27:23;34.0;;;28.0;;
22673;SDS011;11504;43.334;21.918;2023-02-18T13:32:30;26.0;;;25.0;;
22673;SDS011;11504;43.334;21.918;2023-02-18T13:43:38;25.0;;;24.0;;
22673;SDS011;11504;43.334;21.918;2023-02-18T13:48:26;24.0;;;23.0;;
22673;SDS011;11504;43.334;21.918;2023-02-18T13:53:19;24.0;;;23.0;;
22673;SDS011;11504;43.334;21.918;2023-02-18T13:58:00;22.0;;;22.0;;
22673;SDS011;11504;43.334;21.918;2023-02-18T14:02:56;22.0;;;22.0;;
22673;SDS011;11504;43.334;21.918;2023-02-18T14:08:10;21.0;;;20.0;;
22673;SDS011;11504;43.334;21.918;2023-02-18T14:13:40;21.0;;;20.0;;
22673;SDS011;11504;43.334;21.918;2023-02-18T14:18:55;24.0;;;23.0;;
22673;SDS011;11504;43.334;21.918;2023-02-18T14:23:42;24.0;;;23.0;;
22673;SDS011;11504;43.334;21.918;2023-02-18T14:28:42;27.0;;;26.0;;
22673;SDS011;11504;43.334;21.918;2023-02-18T14:33:41;27.0;;;26.0;;
22673;SDS011;11504;43.334;21.918;2023-02-18T14:39:33;28.0;;;26.0;;
22673;SDS011;11504;43.334;21.918;2023-02-18T14:45:16;28.0;;;26.0;;
22673;SDS011;11504;43.334;21.918;2023-02-18T14:50:54;29.0;;;27.0;;
22673;SDS011;11504;43.334;21.918;2023-02-18T14:55:36;29.0;;;27.0;;
22673;SDS011;11504;43.334;21.918;2023-02-18T15:00:34;30.0;;;28.0;;
22673;SDS011;11504;43.334;21.918;2023-02-18T15:05:23;30.0;;;28.0;;
22673;SDS011;11504;43.334;21.918;2023-02-18T15:10:14;32.0;;;30.0;;
22673;SDS011;11504;43.334;21.918;2023-02-18T15:14:53;32.0;;;30.0;;
22673;SDS011;11504;43.334;21.918;2023-02-18T15:19:46;36.0;;;34.0;;
22673;SDS011;11504;43.334;21.918;2023-02-18T15:24:37;36.0;;;34.0;;
22673;SDS011;11504;43.334;21.918;2023-02-18T15:29:19;41.0;;;39.0;;
22673;SDS011;11504;43.334;21.918;2023-02-18T15:34:29;41.0;;;39.0;;
22673;SDS011;11504;43.334;21.918;2023-02-18T15:39:13;51.0;;;48.0;;
22673;SDS011;11504;43.334;21.918;2023-02-18T15:43:53;51.0;;;48.0;;
22673;SDS011;11504;43.334;21.918;2023-02-18T15:48:45;61.0;;;58.0;;
22673;SDS011;11504;43.334;21.918;2023-02-18T15:53:25;61.0;;;58.0;;
22673;SDS011;11504;43.334;21.918;2023-02-18T15:58:07;76.0;;;72.0;;
22673;SDS011;11504;43.334;21.918;2023-02-18T16:03:10;76.0;;;72.0;;
22673;SDS011;11504;43.334;21.918;2023-02-18T16:08:09;90.0;;;85.0;;
22673;SDS011;11504;43.334;21.918;2023-02-18T16:13:03;90.0;;;85.0;;
22673;SDS011;11504;43.334;21.918;2023-02-18T16:17:44;90.0;;;85.0;;
22673;SDS011;11504;43.334;21.918;2023-02-18T16:22:29;92.0;;;88.0;;
22673;SDS011;11504;43.334;21.918;2023-02-18T16:27:21;92.0;;;88.0;;
22673;SDS011;11504;43.334;21.918;2023-02-18T16:32:08;94.0;;;90.0;;
22673;SDS011;11504;43.334;21.918;2023-02-18T16:36:44;94.0;;;90.0;;
22673;SDS011;11504;43.334;21.918;2023-02-18T16:41:21;135.0;;;128.0;;
22673;SDS011;11504;43.334;21.918;2023-02-18T16:46:06;135.0;;;128.0;;
22673;SDS011;11504;43.334;21.918;2023-02-18T16:50:52;176.0;;;166.0;;
22673;SDS011;11504;43.334;21.918;2023-02-18T16:55:29;176.0;;;166.0;;
22673;SDS011;11504;43.334;21.918;2023-02-18T17:00:08;167.0;;;158.0;;
22673;SDS011;11504;43.334;21.918;2023-02-18T17:04:48;167.0;;;158.0;;
22673;SDS011;11504;43.334;21.918;2023-02-18T17:09:25;158.0;;;151.0;;
22673;SDS011;11504;43.334;21.918;2023-02-18T17:14:01;158.0;;;151.0;;
22673;SDS011;11504;43.334;21.918;2023-02-18T17:18:38;114.0;;;108.0;;
22673;SDS011;11504;43.334;21.918;2023-02-18T17:23:18;114.0;;;108.0;;
22673;SDS011;11504;43.334;21.918;2023-02-18T17:28:00;114.0;;;108.0;;
22673;SDS011;11504;43.334;21.918;2023-02-18T17:32:40;71.0;;;64.0;;
22673;SDS011;11504;43.334;21.918;2023-02-18T17:37:20;71.0;;;64.0;;
22673;SDS011;11504;43.334;21.918;2023-02-18T17:41:56;64.0;;;58.0;;
22673;SDS011;11504;43.334;21.918;2023-02-18T17:46:33;64.0;;;58.0;;
22673;SDS011;11504;43.334;21.918;2023-02-18T17:51:22;56.0;;;52.0;;
22673;SDS011;11504;43.334;21.918;2023-02-18T17:56:03;56.0;;;52.0;;
22673;SDS011;11504;43.334;21.918;2023-02-18T18:00:43;51.0;;;48.0;;
22673;SDS011;11504;43.334;21.918;2023-02-18T18:05:32;51.0;;;48.0;;
22673;SDS011;11504;43.334;21.918;2023-02-18T18:10:21;46.0;;;43.0;;
22673;SDS011;11504;43.334;21.918;2023-02-18T18:15:22;46.0;;;43.0;;
22673;SDS011;11504;43.334;21.918;2023-02-18T18:20:09;38.0;;;36.0;;
22673;SDS011;11504;43.334;21.918;2023-02-18T18:24:48;38.0;;;36.0;;
22673;SDS011;11504;43.334;21.918;2023-02-18T18:29:24;31.0;;;29.0;;
22673;SDS011;11504;43.334;21.918;2023-02-18T18:34:01;31.0;;;29.0;;
22673;SDS011;11504;43.334;21.918;2023-02-18T18:38:38;30.0;;;28.0;;
22673;SDS011;11504;43.334;21.918;2023-02-18T18:43:18;30.0;;;28.0;;
22673;SDS011;11504;43.334;21.918;2023-02-18T18:48:03;30.0;;;28.0;;
22673;SDS011;11504;43.334;21.918;2023-02-18T18:52:42;29.0;;;27.0;;
22673;SDS011;11504;43.334;21.918;2023-02-18T18:57:21;29.0;;;27.0;;
22673;SDS011;11504;43.334;21.918;2023-02-18T19:01:58;32.0;;;30.0;;
22673;SDS011;11504;43.334;21.918;2023-02-18T19:06:34;32.0;;;30.0;;
22673;SDS011;11504;43.334;21.918;2023-02-18T19:11:12;34.0;;;32.0;;
22673;SDS011;11504;43.334;21.918;2023-02-18T19:16:00;34.0;;;32.0;;
22673;SDS011;11504;43.334;21.918;2023-02-18T19:20:49;34.0;;;30.0;;
22673;SDS011;11504;43.334;21.918;2023-02-18T19:25:26;34.0;;;30.0;;
22673;SDS011;11504;43.334;21.918;2023-02-18T19:30:05;33.0;;;29.0;;
22673;SDS011;11504;43.334;21.918;2023-02-18T19:34:50;33.0;;;29.0;;
22673;SDS011;11504;43.334;21.918;2023-02-18T19:39:26;36.0;;;34.0;;
22673;SDS011;11504;43.334;21.918;2023-02-18T19:44:03;36.0;;;34.0;;
22673;SDS011;11504;43.334;21.918;2023-02-18T19:48:40;40.0;;;38.0;;
22673;SDS011;11504;43.334;21.918;2023-02-18T19:53:17;40.0;;;38.0;;
22673;SDS011;11504;43.334;21.918;2023-02-18T19:57:54;40.0;;;38.0;;
22673;SDS011;11504;43.334;21.918;2023-02-18T20:02:31;44.0;;;40.0;;
22673;SDS011;11504;43.334;21.918;2023-02-18T20:07:09;44.0;;;40.0;;
22673;SDS011;11504;43.334;21.918;2023-02-18T20:11:52;47.0;;;43.0;;
22673;SDS011;11504;43.334;21.918;2023-02-18T20:16:29;47.0;;;43.0;;
22673;SDS011;11504;43.334;21.918;2023-02-18T20:21:09;44.0;;;40.0;;
22673;SDS011;11504;43.334;21.918;2023-02-18T20:25:47;44.0;;;40.0;;
22673;SDS011;11504;43.334;21.918;2023-02-18T20:30:25;41.0;;;38.0;;
22673;SDS011;11504;43.334;21.918;2023-02-18T20:35:03;41.0;;;38.0;;
22673;SDS011;11504;43.334;21.918;2023-02-18T20:39:43;60.0;;;56.0;;
22673;SDS011;11504;43.334;21.918;2023-02-18T20:44:20;60.0;;;56.0;;
22673;SDS011;11504;43.334;21.918;2023-02-18T20:48:57;79.0;;;75.0;;
22673;SDS011;11504;43.334;21.918;2023-02-18T20:53:36;79.0;;;75.0;;
22673;SDS011;11504;43.334;21.918;2023-02-18T20:58:19;79.0;;;75.0;;
22673;SDS011;11504;43.334;21.918;2023-02-18T21:02:56;78.0;;;75.0;;
22673;SDS011;11504;43.334;21.918;2023-02-18T21:07:32;78.0;;;75.0;;
22673;SDS011;11504;43.334;21.918;2023-02-18T21:12:09;78.0;;;75.0;;
22673;SDS011;11504;43.334;21.918;2023-02-18T21:16:46;78.0;;;75.0;;
22673;SDS011;11504;43.334;21.918;2023-02-18T21:21:23;98.0;;;90.0;;
22673;SDS011;11504;43.334;21.918;2023-02-18T21:26:04;98.0;;;90.0;;
22673;SDS011;11504;43.334;21.918;2023-02-18T21:30:49;117.0;;;105.0;;
22673;SDS011;11504;43.334;21.918;2023-02-18T21:35:26;117.0;;;105.0;;
22673;SDS011;11504;43.334;21.918;2023-02-18T21:40:03;145.0;;;131.0;;
22673;SDS011;11504;43.334;21.918;2023-02-18T21:44:42;145.0;;;131.0;;
22673;SDS011;11504;43.334;21.918;2023-02-18T21:49:19;173.0;;;157.0;;
22673;SDS011;11504;43.334;21.918;2023-02-18T21:53:55;173.0;;;157.0;;
22673;SDS011;11504;43.334;21.918;2023-02-18T21:58:31;138.0;;;123.0;;
22673;SDS011;11504;43.334;21.918;2023-02-18T22:03:08;138.0;;;123.0;;
22673;SDS011;11504;43.334;21.918;2023-02-18T22:07:44;138.0;;;123.0;;
22673;SDS011;11504;43.334;21.918;2023-02-18T22:12:22;102.0;;;89.0;;
22673;SDS011;11504;43.334;21.918;2023-02-18T22:17:01;102.0;;;89.0;;
22673;SDS011;11504;43.334;21.918;2023-02-18T22:21:38;78.0;;;70.0;;
22673;SDS011;11504;43.334;21.918;2023-02-18T22:26:19;78.0;;;70.0;;
22673;SDS011;11504;43.334;21.918;2023-02-18T22:30:57;53.0;;;50.0;;
22673;SDS011;11504;43.334;21.918;2023-02-18T22:35:34;53.0;;;50.0;;
22673;SDS011;11504;43.334;21.918;2023-02-18T22:40:11;52.0;;;48.0;;
22673;SDS011;11504;43.334;21.918;2023-02-18T22:44:48;52.0;;;48.0;;
22673;SDS011;11504;43.334;21.918;2023-02-18T22:49:25;51.0;;;47.0;;
22673;SDS011;11504;43.334;21.918;2023-02-18T22:54:05;51.0;;;47.0;;
22673;SDS011;11504;43.334;21.918;2023-02-18T22:58:56;83.0;;;72.0;;
22673;SDS011;11504;43.334;21.918;2023-02-18T23:03:35;83.0;;;72.0;;
22673;SDS011;11504;43.334;21.918;2023-02-18T23:08:13;83.0;;;72.0;;
22673;SDS011;11504;43.334;21.918;2023-02-18T23:12:51;115.0;;;97.0;;
22673;SDS011;11504;43.334;21.918;2023-02-18T23:17:28;115.0;;;97.0;;
22673;SDS011;11504;43.334;21.918;2023-02-18T23:22:05;95.0;;;82.0;;
22673;SDS011;11504;43.334;21.918;2023-02-18T23:26:46;95.0;;;82.0;;
22673;SDS011;11504;43.334;21.918;2023-02-18T23:31:27;75.0;;;66.0;;
22673;SDS011;11504;43.334;21.918;2023-02-18T23:36:09;75.0;;;66.0;;
22673;SDS011;11504;43.334;21.918;2023-02-18T23:40:52;98.0;;;84.0;;
22673;SDS011;11504;43.334;21.918;2023-02-18T23:45:28;98.0;;;84.0;;
22673;SDS011;11504;43.334;21.918;2023-02-18T23:50:05;121.0;;;103.0;;
22673;SDS011;11504;43.334;21.918;2023-02-18T23:54:43;121.0;;;103.0;;
22673;SDS011;11504;43.334;21.918;2023-02-18T23:59:19;140.0;;;118.0;;
